sensor_id;sensor_type;location;lat;lon;timestamp;P1;durP1;ratioP1;P2;durP2;ratioP2
55224;SDS011;41091;49.400;8.684;2022-08-04T00:00:23;1.08;;;1.08;;
55224;SDS011;41091;49.400;8.684;2022-08-04T00:11:06;1.48;;;1.00;;
55224;SDS011;41091;49.400;8.684;2022-08-04T00:13:37;4.82;;;0.93;;
55224;SDS011;41091;49.400;8.684;2022-08-04T00:16:07;0.82;;;0.82;;
55224;SDS011;41091;49.400;8.684;2022-08-04T00:18:34;1.30;;;1.20;;
55224;SDS011;41091;49.400;8.684;2022-08-04T00:21:05;2.85;;;1.23;;
55224;SDS011;41091;49.400;8.684;2022-08-04T00:23:33;0.82;;;0.82;;
55224;SDS011;41091;49.400;8.684;2022-08-04T00:26:01;1.88;;;1.00;;
55224;SDS011;41091;49.400;8.684;2022-08-04T00:28:27;0.80;;;0.80;;
55224;SDS011;41091;49.400;8.684;2022-08-04T00:30:53;0.90;;;0.90;;
55224;SDS011;41091;49.400;8.684;2022-08-04T00:33:19;2.40;;;1.20;;
55224;SDS011;41091;49.400;8.684;2022-08-04T00:35:46;0.88;;;0.88;;
55224;SDS011;41091;49.400;8.684;2022-08-04T00:38:14;0.93;;;0.88;;
55224;SDS011;41091;49.400;8.684;2022-08-04T00:54:17;1.38;;;0.85;;
55224;SDS011;41091;49.400;8.684;2022-08-04T01:02:30;2.20;;;1.30;;
55224;SDS011;41091;49.400;8.684;2022-08-04T01:05:06;2.83;;;1.25;;
55224;SDS011;41091;49.400;8.684;2022-08-04T01:16:47;1.77;;;1.40;;
55224;SDS011;41091;49.400;8.684;2022-08-04T01:21:59;1.65;;;0.90;;
55224;SDS011;41091;49.400;8.684;2022-08-04T01:30:01;5.22;;;1.20;;
55224;SDS011;41091;49.400;8.684;2022-08-04T01:32:36;2.65;;;1.55;;
55224;SDS011;41091;49.400;8.684;2022-08-04T01:35:04;2.20;;;0.90;;
55224;SDS011;41091;49.400;8.684;2022-08-04T01:40:05;4.78;;;1.20;;
55224;SDS011;41091;49.400;8.684;2022-08-04T01:42:32;1.38;;;1.10;;
55224;SDS011;41091;49.400;8.684;2022-08-04T01:45:06;1.40;;;1.30;;
55224;SDS011;41091;49.400;8.684;2022-08-04T01:47:37;1.40;;;1.40;;
55224;SDS011;41091;49.400;8.684;2022-08-04T01:50:10;4.10;;;1.25;;
55224;SDS011;41091;49.400;8.684;2022-08-04T01:52:40;5.43;;;1.10;;
55224;SDS011;41091;49.400;8.684;2022-08-04T01:55:08;1.40;;;1.20;;
55224;SDS011;41091;49.400;8.684;2022-08-04T01:57:42;1.15;;;1.13;;
55224;SDS011;41091;49.400;8.684;2022-08-04T02:00:10;3.80;;;2.33;;
55224;SDS011;41091;49.400;8.684;2022-08-04T02:02:36;1.33;;;1.23;;
55224;SDS011;41091;49.400;8.684;2022-08-04T02:05:02;2.80;;;1.35;;
55224;SDS011;41091;49.400;8.684;2022-08-04T02:15:55;2.13;;;1.40;;
55224;SDS011;41091;49.400;8.684;2022-08-04T02:18:24;1.65;;;1.55;;
55224;SDS011;41091;49.400;8.684;2022-08-04T02:20:54;1.00;;;1.00;;
55224;SDS011;41091;49.400;8.684;2022-08-04T02:23:28;1.27;;;1.17;;
55224;SDS011;41091;49.400;8.684;2022-08-04T02:25:56;4.90;;;1.23;;
55224;SDS011;41091;49.400;8.684;2022-08-04T02:30:53;1.10;;;1.10;;
55224;SDS011;41091;49.400;8.684;2022-08-04T02:33:22;1.45;;;1.35;;
55224;SDS011;41091;49.400;8.684;2022-08-04T02:41:06;2.92;;;1.40;;
55224;SDS011;41091;49.400;8.684;2022-08-04T02:43:33;1.45;;;1.25;;
55224;SDS011;41091;49.400;8.684;2022-08-04T02:46:02;1.48;;;1.20;;
55224;SDS011;41091;49.400;8.684;2022-08-04T02:48:29;3.03;;;1.00;;
55224;SDS011;41091;49.400;8.684;2022-08-04T02:50:56;1.27;;;1.17;;
55224;SDS011;41091;49.400;8.684;2022-08-04T02:53:22;1.05;;;1.05;;
55224;SDS011;41091;49.400;8.684;2022-08-04T02:55:49;3.75;;;1.00;;
55224;SDS011;41091;49.400;8.684;2022-08-04T02:58:16;3.20;;;1.15;;
55224;SDS011;41091;49.400;8.684;2022-08-04T03:00:44;1.48;;;1.10;;
55224;SDS011;41091;49.400;8.684;2022-08-04T03:06:03;1.33;;;1.10;;
55224;SDS011;41091;49.400;8.684;2022-08-04T03:17:17;1.33;;;1.13;;
55224;SDS011;41091;49.400;8.684;2022-08-04T03:30:27;2.67;;;1.10;;
55224;SDS011;41091;49.400;8.684;2022-08-04T03:41:51;1.10;;;1.10;;
55224;SDS011;41091;49.400;8.684;2022-08-04T04:13:55;1.00;;;0.82;;
55224;SDS011;41091;49.400;8.684;2022-08-04T04:21:45;3.80;;;1.23;;
55224;SDS011;41091;49.400;8.684;2022-08-04T04:34:51;4.55;;;1.20;;
55224;SDS011;41091;49.400;8.684;2022-08-04T04:42:34;3.58;;;0.90;;
55224;SDS011;41091;49.400;8.684;2022-08-04T04:47:40;7.53;;;1.10;;
55224;SDS011;41091;49.400;8.684;2022-08-04T04:53:23;0.65;;;0.65;;
55224;SDS011;41091;49.400;8.684;2022-08-04T04:55:55;0.80;;;0.80;;
55224;SDS011;41091;49.400;8.684;2022-08-04T04:58:28;2.05;;;1.02;;
55224;SDS011;41091;49.400;8.684;2022-08-04T05:09:37;5.05;;;0.90;;
55224;SDS011;41091;49.400;8.684;2022-08-04T05:14:43;5.18;;;0.90;;
55224;SDS011;41091;49.400;8.684;2022-08-04T05:22:28;1.08;;;1.02;;
55224;SDS011;41091;49.400;8.684;2022-08-04T05:25:06;1.80;;;1.30;;
55224;SDS011;41091;49.400;8.684;2022-08-04T05:27:39;5.72;;;1.30;;
55224;SDS011;41091;49.400;8.684;2022-08-04T05:30:09;1.33;;;1.25;;
55224;SDS011;41091;49.400;8.684;2022-08-04T05:35:26;5.82;;;1.20;;
55224;SDS011;41091;49.400;8.684;2022-08-04T05:37:56;6.28;;;3.20;;
55224;SDS011;41091;49.400;8.684;2022-08-04T05:40:24;2.03;;;1.02;;
55224;SDS011;41091;49.400;8.684;2022-08-04T05:42:53;4.15;;;1.40;;
55224;SDS011;41091;49.400;8.684;2022-08-04T05:45:22;2.67;;;1.33;;
55224;SDS011;41091;49.400;8.684;2022-08-04T05:47:49;1.25;;;1.15;;
55224;SDS011;41091;49.400;8.684;2022-08-04T05:50:15;1.63;;;1.02;;
55224;SDS011;41091;49.400;8.684;2022-08-04T05:52:45;1.60;;;0.85;;
55224;SDS011;41091;49.400;8.684;2022-08-04T05:55:14;1.40;;;1.30;;
55224;SDS011;41091;49.400;8.684;2022-08-04T05:57:42;1.65;;;1.25;;
55224;SDS011;41091;49.400;8.684;2022-08-04T06:00:08;2.03;;;1.33;;
55224;SDS011;41091;49.400;8.684;2022-08-04T06:02:36;3.22;;;0.82;;
55224;SDS011;41091;49.400;8.684;2022-08-04T06:05:04;5.07;;;0.88;;
55224;SDS011;41091;49.400;8.684;2022-08-04T06:07:31;1.25;;;1.10;;
55224;SDS011;41091;49.400;8.684;2022-08-04T06:09:59;1.30;;;0.85;;
55224;SDS011;41091;49.400;8.684;2022-08-04T06:12:26;2.20;;;1.10;;
55224;SDS011;41091;49.400;8.684;2022-08-04T06:15:01;5.32;;;1.05;;
55224;SDS011;41091;49.400;8.684;2022-08-04T06:17:31;1.17;;;1.00;;
55224;SDS011;41091;49.400;8.684;2022-08-04T06:19:59;1.70;;;0.95;;
55224;SDS011;41091;49.400;8.684;2022-08-04T06:22:26;6.82;;;0.82;;
55224;SDS011;41091;49.400;8.684;2022-08-04T06:24:53;4.18;;;1.17;;
55224;SDS011;41091;49.400;8.684;2022-08-04T06:27:19;6.18;;;1.13;;
55224;SDS011;41091;49.400;8.684;2022-08-04T06:29:45;1.25;;;1.05;;
55224;SDS011;41091;49.400;8.684;2022-08-04T06:32:15;1.42;;;0.98;;
55224;SDS011;41091;49.400;8.684;2022-08-04T06:35:05;0.90;;;0.90;;
55224;SDS011;41091;49.400;8.684;2022-08-04T06:40:02;3.67;;;1.20;;
55224;SDS011;41091;49.400;8.684;2022-08-04T06:42:29;4.10;;;1.58;;
55224;SDS011;41091;49.400;8.684;2022-08-04T06:44:58;9.13;;;1.13;;
55224;SDS011;41091;49.400;8.684;2022-08-04T06:47:28;1.02;;;1.00;;
55224;SDS011;41091;49.400;8.684;2022-08-04T06:49:56;1.08;;;0.90;;
55224;SDS011;41091;49.400;8.684;2022-08-04T06:52:22;0.88;;;0.85;;
55224;SDS011;41091;49.400;8.684;2022-08-04T06:54:49;10.90;;;1.67;;
55224;SDS011;41091;49.400;8.684;2022-08-04T06:57:22;1.05;;;1.05;;
55224;SDS011;41091;49.400;8.684;2022-08-04T06:59:59;4.57;;;1.02;;
55224;SDS011;41091;49.400;8.684;2022-08-04T07:02:26;4.53;;;1.20;;
55224;SDS011;41091;49.400;8.684;2022-08-04T07:04:54;3.63;;;1.33;;
55224;SDS011;41091;49.400;8.684;2022-08-04T07:07:19;2.05;;;1.00;;
55224;SDS011;41091;49.400;8.684;2022-08-04T07:09:45;1.33;;;1.20;;
55224;SDS011;41091;49.400;8.684;2022-08-04T07:12:12;1.58;;;1.30;;
55224;SDS011;41091;49.400;8.684;2022-08-04T07:14:44;1.10;;;1.00;;
55224;SDS011;41091;49.400;8.684;2022-08-04T07:17:09;1.30;;;1.00;;
55224;SDS011;41091;49.400;8.684;2022-08-04T07:19:35;3.30;;;1.00;;
55224;SDS011;41091;49.400;8.684;2022-08-04T07:22:03;4.00;;;1.15;;
55224;SDS011;41091;49.400;8.684;2022-08-04T07:24:34;0.88;;;0.88;;
55224;SDS011;41091;49.400;8.684;2022-08-04T07:27:01;1.65;;;0.82;;
55224;SDS011;41091;49.400;8.684;2022-08-04T07:29:27;2.42;;;1.00;;
55224;SDS011;41091;49.400;8.684;2022-08-04T07:31:56;3.25;;;1.13;;
55224;SDS011;41091;49.400;8.684;2022-08-04T07:34:22;1.45;;;0.88;;
55224;SDS011;41091;49.400;8.684;2022-08-04T07:36:49;1.30;;;1.20;;
55224;SDS011;41091;49.400;8.684;2022-08-04T07:39:15;4.15;;;1.50;;
55224;SDS011;41091;49.400;8.684;2022-08-04T07:41:41;1.35;;;1.25;;
55224;SDS011;41091;49.400;8.684;2022-08-04T07:44:09;1.25;;;1.15;;
55224;SDS011;41091;49.400;8.684;2022-08-04T07:46:37;1.25;;;1.13;;
55224;SDS011;41091;49.400;8.684;2022-08-04T07:49:05;1.00;;;1.00;;
55224;SDS011;41091;49.400;8.684;2022-08-04T07:51:31;1.10;;;1.10;;
55224;SDS011;41091;49.400;8.684;2022-08-04T07:54:01;1.73;;;1.15;;
55224;SDS011;41091;49.400;8.684;2022-08-04T07:56:39;1.83;;;1.73;;
55224;SDS011;41091;49.400;8.684;2022-08-04T07:59:07;1.33;;;1.23;;
55224;SDS011;41091;49.400;8.684;2022-08-04T08:01:33;2.13;;;1.30;;
55224;SDS011;41091;49.400;8.684;2022-08-04T08:04:00;1.13;;;1.10;;
55224;SDS011;41091;49.400;8.684;2022-08-04T08:06:29;4.15;;;1.60;;
55224;SDS011;41091;49.400;8.684;2022-08-04T08:08:55;2.08;;;1.52;;
55224;SDS011;41091;49.400;8.684;2022-08-04T08:11:20;2.15;;;1.58;;
55224;SDS011;41091;49.400;8.684;2022-08-04T08:13:47;8.65;;;1.48;;
55224;SDS011;41091;49.400;8.684;2022-08-04T08:16:13;4.53;;;1.35;;
55224;SDS011;41091;49.400;8.684;2022-08-04T08:18:38;1.27;;;1.17;;
55224;SDS011;41091;49.400;8.684;2022-08-04T08:21:03;2.85;;;1.75;;
55224;SDS011;41091;49.400;8.684;2022-08-04T08:23:33;6.55;;;1.80;;
55224;SDS011;41091;49.400;8.684;2022-08-04T08:25:59;5.65;;;1.35;;
55224;SDS011;41091;49.400;8.684;2022-08-04T08:28:26;7.65;;;1.63;;
55224;SDS011;41091;49.400;8.684;2022-08-04T08:30:52;3.03;;;1.48;;
55224;SDS011;41091;49.400;8.684;2022-08-04T08:33:17;2.20;;;1.27;;
55224;SDS011;41091;49.400;8.684;2022-08-04T08:38:49;6.70;;;1.48;;
55224;SDS011;41091;49.400;8.684;2022-08-04T08:41:32;4.13;;;1.08;;
55224;SDS011;41091;49.400;8.684;2022-08-04T08:57:36;11.60;;;1.58;;
55224;SDS011;41091;49.400;8.684;2022-08-04T09:00:14;5.35;;;1.20;;
55224;SDS011;41091;49.400;8.684;2022-08-04T09:09:03;18.80;;;1.77;;
55224;SDS011;41091;49.400;8.684;2022-08-04T09:11:38;1.52;;;1.40;;
55224;SDS011;41091;49.400;8.684;2022-08-04T09:14:19;5.32;;;1.65;;
55224;SDS011;41091;49.400;8.684;2022-08-04T09:16:50;2.65;;;1.50;;
55224;SDS011;41091;49.400;8.684;2022-08-04T09:19:22;8.95;;;2.15;;
55224;SDS011;41091;49.400;8.684;2022-08-04T09:24:34;4.40;;;1.45;;
55224;SDS011;41091;49.400;8.684;2022-08-04T09:27:12;3.85;;;1.55;;
55224;SDS011;41091;49.400;8.684;2022-08-04T09:29:46;6.57;;;1.83;;
55224;SDS011;41091;49.400;8.684;2022-08-04T09:32:19;4.95;;;1.30;;
55224;SDS011;41091;49.400;8.684;2022-08-04T09:34:57;8.20;;;1.83;;
55224;SDS011;41091;49.400;8.684;2022-08-04T09:38:15;6.65;;;2.45;;
55224;SDS011;41091;49.400;8.684;2022-08-04T09:45:37;7.45;;;1.63;;
55224;SDS011;41091;49.400;8.684;2022-08-04T09:48:24;1.20;;;1.20;;
55224;SDS011;41091;49.400;8.684;2022-08-04T09:50:57;3.83;;;1.52;;
55224;SDS011;41091;49.400;8.684;2022-08-04T10:01:42;4.70;;;1.50;;
55224;SDS011;41091;49.400;8.684;2022-08-04T10:04:12;2.58;;;1.40;;
55224;SDS011;41091;49.400;8.684;2022-08-04T10:06:45;3.28;;;1.60;;
55224;SDS011;41091;49.400;8.684;2022-08-04T10:14:39;2.47;;;1.48;;
55224;SDS011;41091;49.400;8.684;2022-08-04T10:19:55;7.43;;;1.30;;
55224;SDS011;41091;49.400;8.684;2022-08-04T10:22:40;3.45;;;1.60;;
55224;SDS011;41091;49.400;8.684;2022-08-04T10:27:45;2.95;;;1.55;;
55224;SDS011;41091;49.400;8.684;2022-08-04T10:30:15;1.50;;;1.40;;
55224;SDS011;41091;49.400;8.684;2022-08-04T10:32:43;3.28;;;1.30;;
55224;SDS011;41091;49.400;8.684;2022-08-04T10:35:13;4.75;;;2.00;;
55224;SDS011;41091;49.400;8.684;2022-08-04T10:40:31;4.93;;;1.52;;
55224;SDS011;41091;49.400;8.684;2022-08-04T10:43:07;2.17;;;1.88;;
55224;SDS011;41091;49.400;8.684;2022-08-04T10:45:48;4.95;;;1.85;;
55224;SDS011;41091;49.400;8.684;2022-08-04T10:54:06;1.63;;;1.52;;
55224;SDS011;41091;49.400;8.684;2022-08-04T10:56:47;5.72;;;1.75;;
55224;SDS011;41091;49.400;8.684;2022-08-04T10:59:21;6.32;;;2.05;;
55224;SDS011;41091;49.400;8.684;2022-08-04T11:01:51;2.90;;;1.50;;
55224;SDS011;41091;49.400;8.684;2022-08-04T11:04:22;2.15;;;1.70;;
55224;SDS011;41091;49.400;8.684;2022-08-04T11:06:49;1.63;;;1.52;;
55224;SDS011;41091;49.400;8.684;2022-08-04T11:09:16;1.73;;;1.55;;
55224;SDS011;41091;49.400;8.684;2022-08-04T11:11:55;2.83;;;1.60;;
55224;SDS011;41091;49.400;8.684;2022-08-04T11:14:41;2.80;;;2.05;;
55224;SDS011;41091;49.400;8.684;2022-08-04T11:17:25;5.80;;;1.42;;
55224;SDS011;41091;49.400;8.684;2022-08-04T11:20:11;3.88;;;1.63;;
55224;SDS011;41091;49.400;8.684;2022-08-04T11:22:51;1.70;;;1.60;;
55224;SDS011;41091;49.400;8.684;2022-08-04T11:25:24;2.45;;;1.52;;
55224;SDS011;41091;49.400;8.684;2022-08-04T11:30:56;8.70;;;1.40;;
55224;SDS011;41091;49.400;8.684;2022-08-04T11:36:31;5.07;;;0.90;;
55224;SDS011;41091;49.400;8.684;2022-08-04T11:47:27;2.85;;;1.63;;
55224;SDS011;41091;49.400;8.684;2022-08-04T11:50:54;6.03;;;1.05;;
55224;SDS011;41091;49.400;8.684;2022-08-04T11:52:53;1.35;;;0.93;;
55224;SDS011;41091;49.400;8.684;2022-08-04T11:55:21;1.02;;;1.00;;
55224;SDS011;41091;49.400;8.684;2022-08-04T11:57:49;1.15;;;1.15;;
55224;SDS011;41091;49.400;8.684;2022-08-04T12:00:15;1.65;;;0.73;;
55224;SDS011;41091;49.400;8.684;2022-08-04T12:05:17;7.72;;;0.88;;
55224;SDS011;41091;49.400;8.684;2022-08-04T12:24:16;1.10;;;0.80;;
55224;SDS011;41091;49.400;8.684;2022-08-04T12:26:51;0.85;;;0.85;;
55224;SDS011;41091;49.400;8.684;2022-08-04T12:29:19;2.38;;;0.65;;
55224;SDS011;41091;49.400;8.684;2022-08-04T12:39:41;1.20;;;0.52;;
55224;SDS011;41091;49.400;8.684;2022-08-04T12:42:21;1.13;;;0.70;;
55224;SDS011;41091;49.400;8.684;2022-08-04T12:44:48;0.65;;;0.63;;
55224;SDS011;41091;49.400;8.684;2022-08-04T12:47:20;3.60;;;0.60;;
55224;SDS011;41091;49.400;8.684;2022-08-04T12:49:47;4.20;;;0.70;;
55224;SDS011;41091;49.400;8.684;2022-08-04T12:52:14;0.98;;;0.43;;
55224;SDS011;41091;49.400;8.684;2022-08-04T12:54:41;6.68;;;0.70;;
55224;SDS011;41091;49.400;8.684;2022-08-04T12:57:09;1.95;;;0.68;;
55224;SDS011;41091;49.400;8.684;2022-08-04T12:59:42;2.70;;;0.65;;
55224;SDS011;41091;49.400;8.684;2022-08-04T13:02:21;2.28;;;0.52;;
55224;SDS011;41091;49.400;8.684;2022-08-04T13:04:50;1.77;;;0.65;;
55224;SDS011;41091;49.400;8.684;2022-08-04T13:07:19;8.90;;;0.80;;
55224;SDS011;41091;49.400;8.684;2022-08-04T13:09:46;0.88;;;0.85;;
55224;SDS011;41091;49.400;8.684;2022-08-04T13:12:13;6.40;;;0.63;;
55224;SDS011;41091;49.400;8.684;2022-08-04T13:14:40;1.77;;;0.70;;
55224;SDS011;41091;49.400;8.684;2022-08-04T13:17:11;0.65;;;0.65;;
55224;SDS011;41091;49.400;8.684;2022-08-04T13:19:44;0.73;;;0.57;;
55224;SDS011;41091;49.400;8.684;2022-08-04T13:22:11;3.70;;;0.80;;
55224;SDS011;41091;49.400;8.684;2022-08-04T13:24:36;3.50;;;2.25;;
55224;SDS011;41091;49.400;8.684;2022-08-04T13:27:06;1.50;;;0.80;;
55224;SDS011;41091;49.400;8.684;2022-08-04T13:29:40;0.85;;;0.80;;
55224;SDS011;41091;49.400;8.684;2022-08-04T13:32:07;0.70;;;0.70;;
55224;SDS011;41091;49.400;8.684;2022-08-04T13:34:33;3.10;;;0.70;;
55224;SDS011;41091;49.400;8.684;2022-08-04T13:37:00;3.92;;;0.90;;
55224;SDS011;41091;49.400;8.684;2022-08-04T13:39:29;8.90;;;0.88;;
55224;SDS011;41091;49.400;8.684;2022-08-04T13:41:55;2.97;;;0.80;;
55224;SDS011;41091;49.400;8.684;2022-08-04T13:44:26;1.10;;;1.00;;
55224;SDS011;41091;49.400;8.684;2022-08-04T13:46:58;0.60;;;0.60;;
55224;SDS011;41091;49.400;8.684;2022-08-04T13:52:36;2.03;;;0.70;;
55224;SDS011;41091;49.400;8.684;2022-08-04T13:55:02;2.83;;;0.55;;
55224;SDS011;41091;49.400;8.684;2022-08-04T13:57:32;2.45;;;0.60;;
55224;SDS011;41091;49.400;8.684;2022-08-04T14:00:03;1.48;;;0.70;;
55224;SDS011;41091;49.400;8.684;2022-08-04T14:02:51;4.70;;;1.00;;
55224;SDS011;41091;49.400;8.684;2022-08-04T14:05:23;0.93;;;0.50;;
55224;SDS011;41091;49.400;8.684;2022-08-04T14:07:57;1.42;;;0.70;;
55224;SDS011;41091;49.400;8.684;2022-08-04T14:10:30;4.32;;;0.65;;
55224;SDS011;41091;49.400;8.684;2022-08-04T14:12:58;8.73;;;0.97;;
55224;SDS011;41091;49.400;8.684;2022-08-04T14:15:30;4.93;;;0.52;;
55224;SDS011;41091;49.400;8.684;2022-08-04T14:21:11;2.40;;;0.52;;
55224;SDS011;41091;49.400;8.684;2022-08-04T14:23:41;2.85;;;1.35;;
55224;SDS011;41091;49.400;8.684;2022-08-04T14:28:49;0.60;;;0.60;;
55224;SDS011;41091;49.400;8.684;2022-08-04T14:31:16;0.70;;;0.60;;
55224;SDS011;41091;49.400;8.684;2022-08-04T14:33:46;3.70;;;1.13;;
55224;SDS011;41091;49.400;8.684;2022-08-04T14:36:12;1.75;;;0.63;;
55224;SDS011;41091;49.400;8.684;2022-08-04T14:38:52;0.75;;;0.60;;
55224;SDS011;41091;49.400;8.684;2022-08-04T14:41:20;0.93;;;0.70;;
55224;SDS011;41091;49.400;8.684;2022-08-04T14:43:54;4.72;;;0.98;;
55224;SDS011;41091;49.400;8.684;2022-08-04T14:46:24;0.85;;;0.60;;
55224;SDS011;41091;49.400;8.684;2022-08-04T14:51:34;0.60;;;0.60;;
55224;SDS011;41091;49.400;8.684;2022-08-04T14:54:01;0.63;;;0.63;;
55224;SDS011;41091;49.400;8.684;2022-08-04T14:56:27;0.60;;;0.60;;
55224;SDS011;41091;49.400;8.684;2022-08-04T14:59:02;0.50;;;0.50;;
55224;SDS011;41091;49.400;8.684;2022-08-04T15:01:29;0.50;;;0.50;;
55224;SDS011;41091;49.400;8.684;2022-08-04T15:03:55;3.03;;;0.50;;
55224;SDS011;41091;49.400;8.684;2022-08-04T15:06:25;1.00;;;0.57;;
55224;SDS011;41091;49.400;8.684;2022-08-04T15:08:55;1.52;;;0.55;;
55224;SDS011;41091;49.400;8.684;2022-08-04T15:11:22;2.40;;;0.45;;
55224;SDS011;41091;49.400;8.684;2022-08-04T15:13:48;0.60;;;0.60;;
55224;SDS011;41091;49.400;8.684;2022-08-04T15:16:16;4.00;;;0.70;;
55224;SDS011;41091;49.400;8.684;2022-08-04T15:18:41;0.45;;;0.43;;
55224;SDS011;41091;49.400;8.684;2022-08-04T15:21:07;1.02;;;0.93;;
55224;SDS011;41091;49.400;8.684;2022-08-04T15:23:33;2.30;;;0.60;;
55224;SDS011;41091;49.400;8.684;2022-08-04T15:26:00;1.02;;;0.60;;
55224;SDS011;41091;49.400;8.684;2022-08-04T15:28:27;2.63;;;0.60;;
55224;SDS011;41091;49.400;8.684;2022-08-04T15:30:53;0.63;;;0.60;;
55224;SDS011;41091;49.400;8.684;2022-08-04T15:33:19;2.30;;;0.50;;
55224;SDS011;41091;49.400;8.684;2022-08-04T15:35:49;2.25;;;0.60;;
55224;SDS011;41091;49.400;8.684;2022-08-04T15:38:26;0.85;;;0.85;;
55224;SDS011;41091;49.400;8.684;2022-08-04T15:41:07;0.93;;;0.57;;
55224;SDS011;41091;49.400;8.684;2022-08-04T15:46:24;3.92;;;0.70;;
55224;SDS011;41091;49.400;8.684;2022-08-04T15:49:20;4.93;;;0.68;;
55224;SDS011;41091;49.400;8.684;2022-08-04T15:52:00;0.70;;;0.68;;
55224;SDS011;41091;49.400;8.684;2022-08-04T15:54:27;3.40;;;0.60;;
55224;SDS011;41091;49.400;8.684;2022-08-04T15:56:53;1.88;;;0.52;;
55224;SDS011;41091;49.400;8.684;2022-08-04T16:02:42;0.73;;;0.68;;
55224;SDS011;41091;49.400;8.684;2022-08-04T16:07:57;2.50;;;0.90;;
55224;SDS011;41091;49.400;8.684;2022-08-04T16:12:55;3.40;;;0.90;;
55224;SDS011;41091;49.400;8.684;2022-08-04T16:18:06;2.63;;;0.90;;
55224;SDS011;41091;49.400;8.684;2022-08-04T16:20:35;1.42;;;0.93;;
55224;SDS011;41091;49.400;8.684;2022-08-04T16:26:03;0.75;;;0.75;;
55224;SDS011;41091;49.400;8.684;2022-08-04T16:31:11;3.45;;;0.75;;
55224;SDS011;41091;49.400;8.684;2022-08-04T16:33:37;0.95;;;0.95;;
55224;SDS011;41091;49.400;8.684;2022-08-04T16:36:05;2.27;;;0.77;;
55224;SDS011;41091;49.400;8.684;2022-08-04T16:38:58;1.90;;;0.70;;
55224;SDS011;41091;49.400;8.684;2022-08-04T16:41:38;3.30;;;0.82;;
55224;SDS011;41091;49.400;8.684;2022-08-04T16:47:00;8.30;;;0.90;;
55224;SDS011;41091;49.400;8.684;2022-08-04T16:49:27;0.93;;;0.82;;
55224;SDS011;41091;49.400;8.684;2022-08-04T16:51:53;1.35;;;0.98;;
55224;SDS011;41091;49.400;8.684;2022-08-04T16:54:22;1.02;;;0.98;;
55224;SDS011;41091;49.400;8.684;2022-08-04T16:56:48;0.80;;;0.73;;
55224;SDS011;41091;49.400;8.684;2022-08-04T16:59:13;1.17;;;0.85;;
55224;SDS011;41091;49.400;8.684;2022-08-04T17:01:48;3.03;;;0.65;;
55224;SDS011;41091;49.400;8.684;2022-08-04T17:04:15;1.88;;;0.73;;
55224;SDS011;41091;49.400;8.684;2022-08-04T17:06:47;0.70;;;0.70;;
55224;SDS011;41091;49.400;8.684;2022-08-04T17:09:16;1.07;;;0.80;;
55224;SDS011;41091;49.400;8.684;2022-08-04T17:11:43;1.35;;;0.68;;
55224;SDS011;41091;49.400;8.684;2022-08-04T17:14:12;1.30;;;0.90;;
55224;SDS011;41091;49.400;8.684;2022-08-04T17:16:39;1.60;;;0.77;;
55224;SDS011;41091;49.400;8.684;2022-08-04T17:19:06;2.13;;;0.70;;
55224;SDS011;41091;49.400;8.684;2022-08-04T17:21:37;1.48;;;0.63;;
55224;SDS011;41091;49.400;8.684;2022-08-04T17:24:06;2.78;;;1.10;;
55224;SDS011;41091;49.400;8.684;2022-08-04T17:26:35;1.88;;;0.82;;
55224;SDS011;41091;49.400;8.684;2022-08-04T17:29:03;0.98;;;0.98;;
55224;SDS011;41091;49.400;8.684;2022-08-04T17:31:31;3.80;;;0.82;;
55224;SDS011;41091;49.400;8.684;2022-08-04T17:33:58;6.97;;;0.70;;
55224;SDS011;41091;49.400;8.684;2022-08-04T17:36:30;0.73;;;0.63;;
55224;SDS011;41091;49.400;8.684;2022-08-04T17:39:02;2.10;;;0.75;;
55224;SDS011;41091;49.400;8.684;2022-08-04T17:41:36;0.80;;;0.80;;
55224;SDS011;41091;49.400;8.684;2022-08-04T17:44:03;1.58;;;0.75;;
55224;SDS011;41091;49.400;8.684;2022-08-04T17:51:30;1.92;;;0.57;;
55224;SDS011;41091;49.400;8.684;2022-08-04T17:53:59;0.75;;;0.60;;
55224;SDS011;41091;49.400;8.684;2022-08-04T17:56:29;1.13;;;0.80;;
55224;SDS011;41091;49.400;8.684;2022-08-04T18:01:55;1.00;;;0.73;;
55224;SDS011;41091;49.400;8.684;2022-08-04T18:07:02;0.70;;;0.68;;
55224;SDS011;41091;49.400;8.684;2022-08-04T18:09:36;1.08;;;0.90;;
55224;SDS011;41091;49.400;8.684;2022-08-04T18:12:03;0.80;;;0.80;;
55224;SDS011;41091;49.400;8.684;2022-08-04T18:14:39;3.20;;;1.00;;
55224;SDS011;41091;49.400;8.684;2022-08-04T18:17:15;1.05;;;1.00;;
55224;SDS011;41091;49.400;8.684;2022-08-04T18:20:01;1.88;;;0.88;;
55224;SDS011;41091;49.400;8.684;2022-08-04T18:22:28;6.72;;;0.95;;
55224;SDS011;41091;49.400;8.684;2022-08-04T18:24:53;4.97;;;0.98;;
55224;SDS011;41091;49.400;8.684;2022-08-04T18:27:20;3.00;;;1.00;;
55224;SDS011;41091;49.400;8.684;2022-08-04T18:29:50;1.45;;;1.30;;
55224;SDS011;41091;49.400;8.684;2022-08-04T18:32:19;0.90;;;0.90;;
55224;SDS011;41091;49.400;8.684;2022-08-04T18:34:48;1.10;;;0.90;;
55224;SDS011;41091;49.400;8.684;2022-08-04T18:37:14;1.40;;;1.27;;
55224;SDS011;41091;49.400;8.684;2022-08-04T18:39:39;0.88;;;0.88;;
55224;SDS011;41091;49.400;8.684;2022-08-04T18:42:10;3.10;;;1.00;;
55224;SDS011;41091;49.400;8.684;2022-08-04T18:44:36;1.05;;;0.98;;
55224;SDS011;41091;49.400;8.684;2022-08-04T18:47:04;5.00;;;0.83;;
55224;SDS011;41091;49.400;8.684;2022-08-04T18:49:29;5.32;;;1.02;;
55224;SDS011;41091;49.400;8.684;2022-08-04T18:51:55;1.48;;;1.02;;
55224;SDS011;41091;49.400;8.684;2022-08-04T18:54:21;1.08;;;0.98;;
55224;SDS011;41091;49.400;8.684;2022-08-04T18:56:53;1.45;;;1.35;;
55224;SDS011;41091;49.400;8.684;2022-08-04T18:59:19;3.20;;;0.98;;
55224;SDS011;41091;49.400;8.684;2022-08-04T19:01:47;3.42;;;1.73;;
55224;SDS011;41091;49.400;8.684;2022-08-04T19:04:15;2.50;;;0.98;;
55224;SDS011;41091;49.400;8.684;2022-08-04T19:06:43;4.10;;;1.30;;
55224;SDS011;41091;49.400;8.684;2022-08-04T19:09:10;1.15;;;1.15;;
55224;SDS011;41091;49.400;8.684;2022-08-04T19:11:38;3.33;;;1.25;;
55224;SDS011;41091;49.400;8.684;2022-08-04T19:14:04;5.05;;;1.30;;
55224;SDS011;41091;49.400;8.684;2022-08-04T19:16:30;2.42;;;1.40;;
55224;SDS011;41091;49.400;8.684;2022-08-04T19:18:56;3.63;;;1.27;;
55224;SDS011;41091;49.400;8.684;2022-08-04T19:21:22;2.67;;;1.10;;
55224;SDS011;41091;49.400;8.684;2022-08-04T19:23:48;2.78;;;1.45;;
55224;SDS011;41091;49.400;8.684;2022-08-04T19:26:14;3.55;;;1.48;;
55224;SDS011;41091;49.400;8.684;2022-08-04T19:28:39;1.38;;;1.35;;
55224;SDS011;41091;49.400;8.684;2022-08-04T19:31:07;2.30;;;1.20;;
55224;SDS011;41091;49.400;8.684;2022-08-04T19:33:36;2.00;;;1.80;;
55224;SDS011;41091;49.400;8.684;2022-08-04T19:38:28;2.65;;;1.33;;
55224;SDS011;41091;49.400;8.684;2022-08-04T19:40:57;6.80;;;1.55;;
55224;SDS011;41091;49.400;8.684;2022-08-04T19:43:22;1.27;;;1.10;;
55224;SDS011;41091;49.400;8.684;2022-08-04T19:45:48;1.98;;;1.17;;
55224;SDS011;41091;49.400;8.684;2022-08-04T19:48:16;4.00;;;1.50;;
55224;SDS011;41091;49.400;8.684;2022-08-04T19:50:42;1.30;;;1.30;;
55224;SDS011;41091;49.400;8.684;2022-08-04T19:53:09;4.90;;;1.42;;
55224;SDS011;41091;49.400;8.684;2022-08-04T19:55:35;1.33;;;1.30;;
55224;SDS011;41091;49.400;8.684;2022-08-04T19:58:02;3.13;;;1.02;;
55224;SDS011;41091;49.400;8.684;2022-08-04T20:00:29;4.07;;;1.10;;
55224;SDS011;41091;49.400;8.684;2022-08-04T20:02:59;2.17;;;1.00;;
55224;SDS011;41091;49.400;8.684;2022-08-04T20:05:27;0.98;;;0.98;;
55224;SDS011;41091;49.400;8.684;2022-08-04T20:07:52;1.30;;;1.20;;
55224;SDS011;41091;49.400;8.684;2022-08-04T20:10:22;1.70;;;0.85;;
55224;SDS011;41091;49.400;8.684;2022-08-04T20:12:48;2.58;;;0.80;;
55224;SDS011;41091;49.400;8.684;2022-08-04T20:15:13;1.40;;;1.15;;
55224;SDS011;41091;49.400;8.684;2022-08-04T20:17:39;3.38;;;1.40;;
55224;SDS011;41091;49.400;8.684;2022-08-04T20:20:05;5.00;;;1.23;;
55224;SDS011;41091;49.400;8.684;2022-08-04T20:22:33;1.60;;;1.00;;